Time;durP1;ratioP1;P1;durP2;ratioP2;P2;SDS_P1;SDS_P2;PMS_P1;PMS_P2;Temp;Humidity;BMP_temperature;BMP_pressure;BME280_temperature;BME280_humidity;BME280_pressure;Samples;Min_cycle;Max_cycle;Signal;HPM_P1;HPM_P2
2021/03/17 00:00:44;;;;;;;12.68;3.60;;;2.40;99.90;;;;;;5067681;28;20037;-54
2021/03/17 00:03:10;;;;;;;14.85;3.30;;;2.40;99.90;;;;;;5067229;28;20458;-51
2021/03/17 00:05:37;;;;;;;13.35;2.90;;;2.50;99.90;;;;;;5079497;28;20036;-54
2021/03/17 00:08:03;;;;;;;16.13;3.40;;;2.50;99.90;;;;;;5076550;28;20115;-54
2021/03/17 00:10:35;;;;;;;16.48;3.95;;;2.50;99.90;;;;;;5079904;28;20123;-52
2021/03/17 00:13:02;;;;;;;14.88;3.40;;;2.50;99.90;;;;;;5080813;28;20036;-53
2021/03/17 00:15:37;;;;;;;12.93;3.17;;;2.50;99.90;;;;;;5067717;28;20041;-50
2021/03/17 00:18:04;;;;;;;15.10;3.47;;;2.50;99.90;;;;;;5059525;28;20032;-54
2021/03/17 00:20:31;;;;;;;11.15;3.90;;;2.50;99.90;;;;;;5066398;28;20447;-53
2021/03/17 00:22:57;;;;;;;17.17;3.40;;;2.50;99.90;;;;;;5053071;28;20037;-52
2021/03/17 00:25:34;;;;;;;12.20;2.97;;;2.50;99.90;;;;;;5059657;28;20047;-51
2021/03/17 00:28:01;;;;;;;16.40;3.47;;;2.40;99.90;;;;;;5062957;28;20062;-52
2021/03/17 00:30:29;;;;;;;26.60;3.60;;;2.30;99.90;;;;;;5064854;28;22726;-54
2021/03/17 00:32:55;;;;;;;19.55;3.50;;;2.30;99.90;;;;;;5057222;28;20702;-54
2021/03/17 00:35:22;;;;;;;19.90;3.33;;;2.30;99.90;;;;;;5065913;28;20163;-53
2021/03/17 00:37:47;;;;;;;13.50;3.47;;;2.30;99.90;;;;;;5048145;28;20070;-53
2021/03/17 00:40:13;;;;;;;18.45;3.88;;;2.40;99.90;;;;;;5047440;28;20493;-52
2021/03/17 00:42:39;;;;;;;34.60;16.02;;;2.30;99.90;;;;;;5045636;28;20540;-54
2021/03/17 00:45:05;;;;;;;20.95;5.88;;;2.40;99.90;;;;;;5046398;28;20072;-52
2021/03/17 00:47:30;;;;;;;14.68;4.47;;;2.40;99.90;;;;;;5045863;28;20084;-51
2021/03/17 00:49:56;;;;;;;14.00;3.67;;;2.30;99.90;;;;;;5046691;28;20044;-50
2021/03/17 00:52:22;;;;;;;12.32;3.38;;;2.30;99.90;;;;;;5060673;28;20040;-50
2021/03/17 00:54:47;;;;;;;12.30;3.72;;;2.20;99.90;;;;;;5063636;28;20040;-54
2021/03/17 00:57:13;;;;;;;9.18;3.00;;;2.20;99.90;;;;;;5061986;28;20041;-51
2021/03/17 00:59:38;;;;;;;18.80;3.60;;;2.20;99.90;;;;;;5056966;28;20459;-56
2021/03/17 01:02:04;;;;;;;14.35;2.85;;;2.10;99.90;;;;;;5048872;28;20080;-53
2021/03/17 01:04:30;;;;;;;13.15;2.55;;;2.10;99.90;;;;;;5065611;28;20048;-51
2021/03/17 01:06:55;;;;;;;17.45;3.25;;;2.20;99.90;;;;;;5065280;28;20462;-56
2021/03/17 01:09:21;;;;;;;27.38;7.10;;;2.10;99.90;;;;;;5064948;28;20044;-51
2021/03/17 01:11:46;;;;;;;14.20;4.60;;;2.10;99.90;;;;;;5064149;28;20040;-51
2021/03/17 01:14:12;;;;;;;15.10;3.10;;;2.20;99.90;;;;;;5064482;28;20528;-50
2021/03/17 01:16:38;;;;;;;9.98;2.72;;;2.10;99.90;;;;;;5064654;28;20051;-51
2021/03/17 01:19:04;;;;;;;15.20;3.33;;;2.10;99.90;;;;;;5064450;28;20075;-48
2021/03/17 01:21:29;;;;;;;7.13;2.85;;;2.00;99.90;;;;;;5052030;28;20481;-51
2021/03/17 01:23:55;;;;;;;10.45;3.83;;;2.00;99.90;;;;;;5062334;28;20064;-51
2021/03/17 01:26:21;;;;;;;12.75;3.13;;;1.90;99.90;;;;;;5060445;28;20086;-53
2021/03/17 01:28:47;;;;;;;16.05;2.40;;;1.90;99.90;;;;;;5065341;28;20040;-55
2021/03/17 01:31:12;;;;;;;16.50;2.78;;;1.90;99.90;;;;;;5058522;28;20067;-55
2021/03/17 01:33:38;;;;;;;13.15;2.50;;;1.90;99.90;;;;;;5059154;28;20532;-48
2021/03/17 01:36:04;;;;;;;13.60;2.85;;;2.00;99.90;;;;;;5065983;28;20407;-50
2021/03/17 01:38:30;;;;;;;8.63;2.47;;;2.00;99.90;;;;;;5065927;28;20052;-51
2021/03/17 01:40:56;;;;;;;11.65;2.63;;;2.00;99.90;;;;;;5064312;28;20044;-53
2021/03/17 01:43:23;;;;;;;11.65;2.42;;;2.00;99.90;;;;;;5064821;28;20049;-49
2021/03/17 01:45:50;;;;;;;18.58;2.70;;;2.00;99.90;;;;;;5064341;28;20111;-51
2021/03/17 01:48:16;;;;;;;17.92;3.10;;;1.90;99.90;;;;;;5053520;28;20120;-52
2021/03/17 01:50:49;;;;;;;6.43;2.10;;;1.90;99.90;;;;;;5053756;28;20041;-55
2021/03/17 01:53:17;;;;;;;8.75;2.05;;;1.90;99.90;;;;;;5064436;28;20041;-50
2021/03/17 01:55:44;;;;;;;5.50;1.98;;;1.90;99.90;;;;;;5064685;28;20664;-55
2021/03/17 01:58:10;;;;;;;13.25;2.53;;;1.90;99.90;;;;;;5063061;28;20484;-50
2021/03/17 02:00:38;;;;;;;8.88;2.30;;;1.90;99.90;;;;;;5058618;28;20040;-56
2021/03/17 02:03:04;;;;;;;8.02;2.28;;;1.90;99.90;;;;;;5055948;28;20178;-52
2021/03/17 02:05:33;;;;;;;9.77;1.98;;;1.90;99.90;;;;;;5065552;28;20070;-51
2021/03/17 02:08:05;;;;;;;11.95;2.60;;;1.90;99.90;;;;;;5064875;28;20082;-53
2021/03/17 02:10:31;;;;;;;10.05;2.03;;;1.90;99.90;;;;;;5056536;28;20048;-53
2021/03/17 02:13:34;;;;;;;11.80;2.92;;;1.90;99.90;;;;;;5061113;28;20036;-51
2021/03/17 02:16:18;;;;;;;12.13;2.22;;;1.80;99.90;;;;;;5061081;28;20039;-49
2021/03/17 02:18:56;;;;;;;13.15;3.00;;;1.80;99.90;;;;;;5059301;28;20530;-52
2021/03/17 02:21:45;;;;;;;12.70;3.03;;;1.80;99.90;;;;;;5061707;28;20070;-47
2021/03/17 02:24:25;;;;;;;10.57;2.30;;;1.70;99.90;;;;;;5053905;28;20063;-51
2021/03/17 02:27:28;;;;;;;11.50;3.17;;;1.70;99.90;;;;;;5052094;28;20041;-53
2021/03/17 02:30:31;;;;;;;6.05;2.30;;;1.80;99.90;;;;;;5062666;28;20032;-54
2021/03/17 02:33:34;;;;;;;9.90;2.70;;;1.80;99.90;;;;;;5059035;28;20037;-50
2021/03/17 02:36:05;;;;;;;14.77;3.00;;;1.90;99.90;;;;;;5059230;28;20063;-53
2021/03/17 02:38:31;;;;;;;15.07;2.60;;;1.90;99.90;;;;;;5064393;28;20409;-51
2021/03/17 02:41:00;;;;;;;13.45;4.07;;;1.90;99.90;;;;;;5064857;28;20385;-53
2021/03/17 02:43:32;;;;;;;13.90;3.30;;;1.90;99.90;;;;;;5063901;28;20044;-51
2021/03/17 02:46:06;;;;;;;20.48;3.70;;;1.90;99.90;;;;;;5063311;28;20843;-53
2021/03/17 02:48:41;;;;;;;10.38;2.90;;;1.90;99.90;;;;;;5046496;28;20489;-50
2021/03/17 02:51:13;;;;;;;12.90;4.47;;;1.90;99.90;;;;;;5045136;28;20632;-47
2021/03/17 02:53:41;;;;;;;11.80;3.25;;;2.00;99.90;;;;;;5045543;28;20047;-51
2021/03/17 02:56:10;;;;;;;13.85;4.25;;;2.00;99.90;;;;;;5053451;28;20071;-50
2021/03/17 02:58:38;;;;;;;12.25;3.38;;;2.00;99.90;;;;;;5062011;28;20036;-50
2021/03/17 03:01:06;;;;;;;10.63;3.33;;;1.90;99.90;;;;;;5045219;28;20045;-49
2021/03/17 03:03:36;;;;;;;10.77;4.55;;;1.90;99.90;;;;;;5060350;28;20070;-50
2021/03/17 03:06:04;;;;;;;19.92;3.55;;;1.90;99.90;;;;;;5064679;28;20041;-53
2021/03/17 03:08:32;;;;;;;18.20;4.40;;;1.80;99.90;;;;;;5063861;28;20106;-48
2021/03/17 03:10:59;;;;;;;17.67;4.40;;;1.80;99.90;;;;;;5063071;28;20115;-52
2021/03/17 03:13:28;;;;;;;17.63;4.03;;;1.80;99.90;;;;;;5064430;28;20040;-53
2021/03/17 03:15:55;;;;;;;9.60;4.20;;;1.80;99.90;;;;;;5055849;28;20132;-50
2021/03/17 03:18:24;;;;;;;14.32;4.60;;;1.80;99.90;;;;;;5063877;28;20029;-51
2021/03/17 03:20:51;;;;;;;19.38;5.13;;;1.80;99.90;;;;;;5056784;28;20044;-54
2021/03/17 03:23:18;;;;;;;17.92;4.18;;;1.80;99.90;;;;;;5065397;28;20097;-54
2021/03/17 03:25:46;;;;;;;12.70;3.70;;;1.90;99.90;;;;;;5061385;28;20044;-50
2021/03/17 03:28:14;;;;;;;12.52;4.38;;;1.90;99.90;;;;;;5062494;28;20415;-51
2021/03/17 03:30:43;;;;;;;16.80;4.80;;;1.80;99.90;;;;;;5069339;28;20122;-51
2021/03/17 03:33:09;;;;;;;18.27;5.18;;;1.90;99.90;;;;;;5061886;28;20036;-55
2021/03/17 03:35:36;;;;;;;13.48;4.72;;;1.80;99.90;;;;;;5057080;28;20044;-52
2021/03/17 03:38:09;;;;;;;16.15;5.15;;;1.80;99.90;;;;;;5063991;28;20043;-54
2021/03/17 03:40:35;;;;;;;16.58;5.70;;;1.80;99.90;;;;;;5063767;28;20037;-52
2021/03/17 03:43:03;;;;;;;18.88;4.85;;;1.80;99.90;;;;;;5064353;28;20040;-50
2021/03/17 03:45:28;;;;;;;15.05;4.18;;;1.70;99.90;;;;;;5060645;28;20713;-53
2021/03/17 03:47:55;;;;;;;24.08;5.55;;;1.70;99.90;;;;;;5063454;28;20045;-49
2021/03/17 03:50:23;;;;;;;12.15;4.28;;;1.70;99.90;;;;;;5066360;28;20054;-51
2021/03/17 03:53:13;;;;;;;17.63;5.40;;;1.80;99.90;;;;;;5058560;28;20052;-54
2021/03/17 03:56:07;;;;;;;16.77;5.35;;;1.80;99.90;;;;;;5065324;28;20082;-50
2021/03/17 03:58:44;;;;;;;15.40;5.15;;;1.80;99.90;;;;;;5061579;28;20048;-48
2021/03/17 04:01:13;;;;;;;18.50;5.50;;;1.80;99.90;;;;;;5060833;28;20119;-52
2021/03/17 04:03:43;;;;;;;12.77;5.25;;;1.90;99.90;;;;;;5053557;28;20080;-49
2021/03/17 04:06:13;;;;;;;9.27;4.68;;;1.80;99.90;;;;;;5073056;28;20119;-48
2021/03/17 04:08:47;;;;;;;13.07;5.00;;;1.80;99.90;;;;;;5063063;28;20036;-51
2021/03/17 04:11:14;;;;;;;11.02;5.43;;;1.80;99.90;;;;;;5062264;28;20044;-52
2021/03/17 04:13:41;;;;;;;14.43;6.60;;;1.80;99.90;;;;;;5063594;28;20403;-50
2021/03/17 04:16:07;;;;;;;13.95;5.47;;;1.80;99.90;;;;;;5064329;28;20663;-52
2021/03/17 04:18:54;;;;;;;11.10;4.63;;;1.80;99.90;;;;;;5054565;28;20044;-51
2021/03/17 04:21:28;;;;;;;11.38;5.13;;;1.60;99.90;;;;;;5060338;28;20036;-51
2021/03/17 04:23:56;;;;;;;13.52;4.28;;;1.60;99.90;;;;;;5066613;28;20036;-49
2021/03/17 04:26:23;;;;;;;9.70;4.50;;;1.60;99.90;;;;;;5066556;28;20076;-49
2021/03/17 04:28:50;;;;;;;12.27;4.72;;;1.60;99.90;;;;;;5067835;28;20574;-49
2021/03/17 04:31:16;;;;;;;12.75;4.07;;;1.60;99.90;;;;;;5058240;28;20040;-49
2021/03/17 04:33:43;;;;;;;10.25;4.43;;;1.60;99.90;;;;;;5058957;28;20047;-49
2021/03/17 04:36:11;;;;;;;10.52;4.07;;;1.70;99.90;;;;;;5051451;28;20045;-53
2021/03/17 04:38:38;;;;;;;9.50;3.92;;;1.70;99.90;;;;;;5067260;28;20051;-48
2021/03/17 04:41:04;;;;;;;10.57;4.20;;;1.80;99.90;;;;;;5057998;28;20040;-49
2021/03/17 04:43:30;;;;;;;11.27;4.25;;;1.70;99.90;;;;;;5060046;28;20049;-51
2021/03/17 04:45:59;;;;;;;8.38;3.28;;;1.70;99.90;;;;;;5057753;28;20524;-53
2021/03/17 04:48:25;;;;;;;8.23;3.17;;;1.70;99.90;;;;;;5061922;28;20063;-50
2021/03/17 04:50:52;;;;;;;6.10;3.22;;;1.70;99.90;;;;;;5047714;28;20073;-55
2021/03/17 04:53:18;;;;;;;6.00;3.10;;;1.70;99.90;;;;;;5047112;28;20052;-54
2021/03/17 04:55:44;;;;;;;5.28;3.05;;;1.60;99.90;;;;;;5057736;28;20036;-53
2021/03/17 04:58:12;;;;;;;6.88;3.28;;;1.70;99.90;;;;;;5064391;28;20048;-51
2021/03/17 05:00:39;;;;;;;6.45;3.20;;;1.70;99.90;;;;;;5075117;28;20033;-51
2021/03/17 05:03:08;;;;;;;4.93;3.08;;;1.80;99.90;;;;;;5050054;28;20060;-48
2021/03/17 05:05:38;;;;;;;5.32;2.95;;;1.80;99.90;;;;;;5047213;28;20041;-50
2021/03/17 05:08:06;;;;;;;6.85;3.03;;;1.70;99.90;;;;;;5047407;28;20404;-53
2021/03/17 05:10:33;;;;;;;5.25;2.50;;;1.70;99.90;;;;;;5058748;28;20041;-50
2021/03/17 05:12:59;;;;;;;5.18;3.20;;;1.70;99.90;;;;;;5066621;28;20782;-47
2021/03/17 05:15:25;;;;;;;4.20;2.70;;;1.70;99.90;;;;;;5060917;28;20041;-50
2021/03/17 05:17:52;;;;;;;6.35;2.50;;;1.70;99.90;;;;;;5065686;28;20454;-54
2021/03/17 05:20:19;;;;;;;4.72;2.45;;;1.80;99.90;;;;;;5058575;28;20045;-50
2021/03/17 05:22:49;;;;;;;8.07;2.97;;;1.70;99.90;;;;;;5066335;28;20090;-53
2021/03/17 05:25:21;;;;;;;4.05;2.45;;;1.70;99.90;;;;;;5065377;28;20066;-53
2021/03/17 05:27:50;;;;;;;5.32;2.35;;;1.60;99.90;;;;;;5065987;28;20029;-52
2021/03/17 05:30:17;;;;;;;4.03;2.40;;;1.50;99.90;;;;;;5048885;28;20061;-54
2021/03/17 05:32:45;;;;;;;5.57;2.67;;;1.60;99.90;;;;;;5046429;28;20823;-50
2021/03/17 05:35:11;;;;;;;5.95;2.42;;;1.60;99.90;;;;;;5047514;28;20044;-54
2021/03/17 05:37:38;;;;;;;6.10;2.53;;;1.60;99.90;;;;;;5049511;28;20032;-51
2021/03/17 05:40:08;;;;;;;3.05;2.03;;;1.50;99.90;;;;;;5051609;28;20041;-56
2021/03/17 05:42:34;;;;;;;2.75;1.98;;;1.50;99.90;;;;;;5056960;28;20032;-54
2021/03/17 05:45:00;;;;;;;5.32;1.90;;;1.40;99.90;;;;;;5065749;28;20186;-55
2021/03/17 05:47:25;;;;;;;4.57;2.30;;;1.30;99.90;;;;;;5064974;28;20048;-55
2021/03/17 05:49:52;;;;;;;6.95;2.13;;;1.30;99.90;;;;;;5066408;28;20046;-57
2021/03/17 05:52:19;;;;;;;10.45;2.60;;;1.20;99.90;;;;;;5064267;28;20503;-55
2021/03/17 05:54:46;;;;;;;7.03;2.13;;;1.30;99.90;;;;;;5048626;28;20029;-55
2021/03/17 05:57:12;;;;;;;5.32;2.20;;;1.30;99.90;;;;;;5055697;28;20442;-51
2021/03/17 05:59:38;;;;;;;5.45;2.20;;;1.30;99.90;;;;;;5046473;28;20041;-54
2021/03/17 06:02:07;;;;;;;6.53;2.55;;;1.40;99.90;;;;;;5045228;28;20033;-53
2021/03/17 06:04:34;;;;;;;4.80;3.15;;;1.40;99.90;;;;;;5061973;28;20053;-58
2021/03/17 06:07:00;;;;;;;8.00;4.07;;;1.40;99.90;;;;;;5046560;28;20041;-53
2021/03/17 06:09:28;;;;;;;9.55;3.25;;;1.30;99.90;;;;;;5062615;28;20123;-52
2021/03/17 06:11:55;;;;;;;11.75;3.70;;;1.10;99.90;;;;;;5063285;28;20044;-52
2021/03/17 06:14:26;;;;;;;7.20;3.63;;;1.10;99.90;;;;;;5065317;28;20719;-52
2021/03/17 06:17:00;;;;;;;12.43;3.40;;;1.20;99.90;;;;;;5053037;28;20041;-56
2021/03/17 06:19:28;;;;;;;7.90;3.65;;;1.30;99.90;;;;;;5059411;28;20040;-55
2021/03/17 06:21:55;;;;;;;12.68;4.38;;;1.30;99.90;;;;;;5062164;28;20089;-56
2021/03/17 06:24:21;;;;;;;8.57;4.43;;;1.40;99.90;;;;;;5060703;28;20043;-54
2021/03/17 06:26:47;;;;;;;8.27;3.50;;;1.40;99.90;;;;;;5063605;28;20033;-53
2021/03/17 06:29:15;;;;;;;6.55;3.60;;;1.40;99.90;;;;;;5059479;28;20040;-54
2021/03/17 06:31:40;;;;;;;11.20;4.35;;;1.50;99.90;;;;;;5054915;28;20045;-56
2021/03/17 06:34:06;;;;;;;11.30;4.25;;;1.50;99.90;;;;;;5064423;28;20597;-54
2021/03/17 06:36:32;;;;;;;9.40;4.20;;;1.60;99.90;;;;;;5056245;28;20059;-54
2021/03/17 06:39:09;;;;;;;9.85;4.15;;;1.60;99.90;;;;;;5065012;28;20074;-53
2021/03/17 06:41:44;;;;;;;9.93;3.75;;;1.60;99.90;;;;;;5057433;28;20668;-50
2021/03/17 06:44:09;;;;;;;10.80;3.55;;;1.60;99.90;;;;;;5053878;28;20071;-51
2021/03/17 06:46:35;;;;;;;8.88;4.07;;;1.70;99.90;;;;;;5063894;28;20648;-55
2021/03/17 06:49:01;;;;;;;7.75;3.65;;;1.70;99.90;;;;;;5061580;28;20043;-54
2021/03/17 06:51:29;;;;;;;7.13;3.58;;;1.80;99.90;;;;;;5062995;28;20101;-56
2021/03/17 06:54:00;;;;;;;10.05;3.45;;;1.90;99.90;;;;;;5064438;28;20116;-56
2021/03/17 06:56:28;;;;;;;6.05;2.55;;;1.90;99.90;;;;;;5064455;28;20048;-56
2021/03/17 06:58:57;;;;;;;8.02;3.47;;;1.90;99.90;;;;;;5061911;28;20131;-54
2021/03/17 07:01:40;;;;;;;8.07;2.78;;;2.00;99.90;;;;;;5059339;28;20044;-55
2021/03/17 07:04:12;;;;;;;6.25;2.35;;;2.10;99.90;;;;;;5061062;28;20617;-53
2021/03/17 07:06:42;;;;;;;7.55;3.03;;;2.10;99.90;;;;;;5057270;28;20044;-50
2021/03/17 07:09:28;;;;;;;6.53;3.28;;;2.10;99.90;;;;;;5049181;28;20032;-57
2021/03/17 07:12:07;;;;;;;9.53;4.03;;;2.20;99.90;;;;;;5063171;28;20052;-51
2021/03/17 07:14:41;;;;;;;8.07;3.40;;;2.20;99.90;;;;;;5064417;28;20050;-54
2021/03/17 07:17:23;;;;;;;4.95;2.85;;;2.20;99.90;;;;;;5055762;28;20039;-55
2021/03/17 07:19:48;;;;;;;7.35;2.63;;;2.20;99.90;;;;;;5054604;28;20045;-53
2021/03/17 07:22:15;;;;;;;5.97;2.42;;;2.20;99.90;;;;;;5048844;28;20036;-52
2021/03/17 07:24:46;;;;;;;6.97;2.45;;;2.40;99.90;;;;;;5065352;28;20123;-51
2021/03/17 07:27:21;;;;;;;7.63;2.55;;;2.40;99.90;;;;;;5067835;28;20033;-56
2021/03/17 07:30:03;;;;;;;6.37;2.67;;;2.50;99.90;;;;;;5052473;28;20562;-55
2021/03/17 07:32:48;;;;;;;9.10;2.65;;;2.60;99.90;;;;;;5049212;28;21080;-54
2021/03/17 07:35:29;;;;;;;9.30;2.83;;;2.50;99.90;;;;;;5062060;28;20083;-57
2021/03/17 07:38:09;;;;;;;12.23;3.40;;;2.30;99.90;;;;;;5068199;28;20043;-52
2021/03/17 07:40:37;;;;;;;7.07;3.35;;;2.40;99.90;;;;;;5054959;28;20045;-50
2021/03/17 07:43:03;;;;;;;6.65;3.05;;;2.40;99.90;;;;;;5065867;28;20079;-56
2021/03/17 07:45:32;;;;;;;8.48;3.47;;;2.50;99.90;;;;;;5068229;28;20037;-55
2021/03/17 07:47:58;;;;;;;9.90;3.35;;;2.50;99.90;;;;;;5066279;28;20036;-57
2021/03/17 07:50:24;;;;;;;9.02;3.30;;;2.60;99.90;;;;;;5056551;28;20186;-57
2021/03/17 07:52:52;;;;;;;10.10;3.55;;;2.40;99.90;;;;;;5064289;28;20591;-54
2021/03/17 07:55:19;;;;;;;7.68;3.15;;;2.30;99.90;;;;;;5062628;28;20037;-54
2021/03/17 07:57:45;;;;;;;7.43;3.67;;;2.30;99.90;;;;;;5061971;28;20049;-55
2021/03/17 08:00:12;;;;;;;9.82;3.58;;;2.20;99.90;;;;;;5065543;28;20349;-58
2021/03/17 08:02:38;;;;;;;15.35;3.60;;;2.10;99.90;;;;;;5066105;28;20202;-60
2021/03/17 08:05:05;;;;;;;10.18;3.20;;;2.00;99.90;;;;;;5059518;28;20044;-54
2021/03/17 08:07:32;;;;;;;11.98;3.60;;;2.20;99.90;;;;;;5068010;28;20090;-54
2021/03/17 08:09:58;;;;;;;12.43;3.55;;;2.10;99.90;;;;;;5061578;28;20044;-58
2021/03/17 08:12:24;;;;;;;11.45;3.47;;;2.10;99.90;;;;;;5066867;28;20036;-52
2021/03/17 08:14:51;;;;;;;12.40;3.53;;;2.10;99.90;;;;;;5053391;28;20088;-65
2021/03/17 08:17:37;;;;;;;9.63;4.15;;;2.20;99.90;;;;;;5064453;28;20056;-52
2021/03/17 08:20:21;;;;;;;15.20;3.80;;;2.30;99.90;;;;;;5064333;28;20056;-55
2021/03/17 08:22:48;;;;;;;8.88;2.70;;;2.20;99.90;;;;;;5062162;28;20052;-53
2021/03/17 08:25:42;;;;;;;6.55;2.58;;;2.10;99.90;;;;;;5054992;28;20104;-52
2021/03/17 08:28:27;;;;;;;9.95;3.05;;;2.20;99.90;;;;;;5064186;28;20640;-55
2021/03/17 08:30:55;;;;;;;12.98;3.25;;;2.20;99.90;;;;;;5066799;28;20033;-54
2021/03/17 08:33:38;;;;;;;11.43;2.72;;;1.90;99.90;;;;;;5065462;28;20096;-50
2021/03/17 08:36:11;;;;;;;16.20;3.45;;;2.00;99.90;;;;;;5062796;28;20045;-52
2021/03/17 08:38:47;;;;;;;13.48;2.75;;;1.80;99.90;;;;;;5047879;28;20041;-52
2021/03/17 08:41:15;;;;;;;12.02;4.03;;;1.90;99.90;;;;;;5063724;28;20392;-53
2021/03/17 08:43:43;;;;;;;11.85;2.67;;;1.90;99.90;;;;;;5066878;28;20051;-50
2021/03/17 08:46:15;;;;;;;12.32;3.22;;;1.90;99.90;;;;;;5065292;28;20095;-53
2021/03/17 08:49:02;;;;;;;13.38;2.90;;;1.90;99.90;;;;;;5064650;28;20036;-55
2021/03/17 08:51:46;;;;;;;;;;;2.00;99.90;;;;;;5066794;28;20041;-54
2021/03/17 08:54:33;;;;;;;12.65;2.65;;;2.00;99.90;;;;;;5066275;28;19923;-53
2021/03/17 08:57:03;;;;;;;;;;;2.00;99.90;;;;;;5062896;28;20040;-56
2021/03/17 09:00:00;;;;;;;10.60;2.65;;;1.90;99.90;;;;;;5055637;28;20387;-56
2021/03/17 09:02:25;;;;;;;8.60;2.40;;;2.00;99.90;;;;;;5059670;28;20051;-53
2021/03/17 09:05:02;;;;;;;8.18;2.30;;;2.10;99.90;;;;;;5065856;28;20135;-52
2021/03/17 09:07:34;;;;;;;9.82;2.28;;;2.20;99.90;;;;;;5063915;28;20044;-57
2021/03/17 09:10:10;;;;;;;11.40;2.67;;;2.00;99.90;;;;;;5058546;28;20037;-55
2021/03/17 09:12:35;;;;;;;6.17;2.30;;;1.90;99.90;;;;;;5065653;28;20051;-54
2021/03/17 09:15:11;;;;;;;10.27;2.65;;;2.10;99.90;;;;;;5065502;28;20040;-54
2021/03/17 09:17:48;;;;;;;8.05;2.30;;;2.20;99.90;;;;;;5062207;28;20068;-55
2021/03/17 09:20:15;;;;;;;11.88;2.55;;;2.40;99.90;;;;;;5064970;28;20046;-54
2021/03/17 09:22:42;;;;;;;9.32;2.10;;;2.50;99.90;;;;;;5053155;28;20063;-51
2021/03/17 09:25:13;;;;;;;10.80;2.78;;;2.80;99.90;;;;;;5063211;28;20083;-52
2021/03/17 09:27:54;;;;;;;8.05;2.20;;;3.00;99.90;;;;;;5065314;28;20033;-54
2021/03/17 09:30:22;;;;;;;12.52;2.50;;;3.00;99.90;;;;;;5055543;28;20669;-54
2021/03/17 09:32:48;;;;;;;7.13;2.53;;;3.10;99.90;;;;;;5059235;28;20479;-62
2021/03/17 09:35:15;;;;;;;13.70;2.58;;;3.20;99.90;;;;;;5061788;28;20040;-56
2021/03/17 09:37:41;;;;;;;10.00;2.45;;;3.00;99.90;;;;;;5061232;28;20656;-59
2021/03/17 09:40:08;;;;;;;10.82;1.98;;;3.10;99.90;;;;;;5061373;28;20029;-50
2021/03/17 09:42:37;;;;;;;5.15;1.95;;;3.20;99.90;;;;;;5054373;28;20040;-57
2021/03/17 09:45:08;;;;;;;19.63;8.25;;;3.10;99.90;;;;;;5066233;28;20096;-58
2021/03/17 09:47:33;;;;;;;13.95;2.55;;;3.30;99.90;;;;;;5063546;28;20087;-54
2021/03/17 09:49:59;;;;;;;4.57;2.50;;;3.00;99.90;;;;;;5060960;28;20036;-56
2021/03/17 09:52:27;;;;;;;10.23;2.83;;;2.80;99.90;;;;;;5063958;28;20044;-55
2021/03/17 09:54:53;;;;;;;8.63;3.53;;;2.90;99.90;;;;;;5054556;28;20040;-59
2021/03/17 09:57:22;;;;;;;7.07;2.65;;;3.00;99.90;;;;;;5063969;28;20048;-54
2021/03/17 09:59:48;;;;;;;10.02;3.47;;;2.80;99.90;;;;;;5064490;28;20060;-53
2021/03/17 10:02:17;;;;;;;11.55;3.47;;;2.60;99.90;;;;;;5056376;28;20064;-55
2021/03/17 10:04:51;;;;;;;10.05;3.53;;;2.50;99.90;;;;;;5064379;28;20500;-58
2021/03/17 10:07:29;;;;;;;9.05;4.53;;;2.50;99.90;;;;;;5050070;28;20036;-53
2021/03/17 10:09:59;;;;;;;7.82;3.42;;;2.50;99.90;;;;;;5064032;28;20045;-55
2021/03/17 10:12:26;;;;;;;9.52;3.65;;;2.60;99.90;;;;;;5059841;28;20563;-53
2021/03/17 10:15:05;;;;;;;14.68;7.00;;;2.50;99.90;;;;;;5059170;28;20036;-54
2021/03/17 10:17:31;;;;;;;15.05;4.50;;;2.50;99.90;;;;;;5057695;28;20071;-54
2021/03/17 10:20:06;;;;;;;10.90;4.57;;;2.30;99.90;;;;;;5046930;28;20047;-55
2021/03/17 10:22:32;;;;;;;9.70;3.28;;;2.20;99.90;;;;;;5061525;28;20048;-56
2021/03/17 10:25:00;;;;;;;9.85;3.45;;;2.10;99.90;;;;;;5064372;28;20043;-55
2021/03/17 10:27:30;;;;;;;9.65;5.63;;;2.20;99.90;;;;;;5057002;28;20072;-56
2021/03/17 10:30:01;;;;;;;6.68;3.38;;;2.50;99.90;;;;;;5064509;28;20037;-55
2021/03/17 10:32:26;;;;;;;12.60;3.53;;;2.50;99.90;;;;;;5060228;28;20044;-59
2021/03/17 10:34:52;;;;;;;15.07;3.17;;;2.50;99.90;;;;;;5064288;28;20046;-64
2021/03/17 10:37:20;;;;;;;8.82;2.60;;;2.40;99.90;;;;;;5057868;28;20040;-59
2021/03/17 10:39:48;;;;;;;11.60;3.75;;;2.80;99.90;;;;;;5053607;28;20135;-50
2021/03/17 10:42:24;;;;;;;8.02;2.80;;;3.00;99.90;;;;;;5060655;28;20044;-55
2021/03/17 10:45:11;;;;;;;14.90;3.08;;;3.00;99.90;;;;;;5059757;28;20051;-59
2021/03/17 10:47:38;;;;;;;7.88;2.28;;;2.70;99.90;;;;;;5057832;28;20159;-51
2021/03/17 10:50:17;;;;;;;7.13;2.63;;;2.90;99.90;;;;;;5063701;28;20774;-56
2021/03/17 10:52:47;;;;;;;10.60;2.00;;;3.10;99.90;;;;;;5064495;28;20618;-56
2021/03/17 10:55:20;;;;;;;5.32;1.90;;;3.20;99.90;;;;;;5062005;28;20106;-54
2021/03/17 10:57:46;;;;;;;6.00;1.98;;;3.30;99.90;;;;;;5061268;28;20402;-55
2021/03/17 11:00:15;;;;;;;5.47;2.85;;;3.40;99.90;;;;;;5063178;28;20048;-56
2021/03/17 11:02:41;;;;;;;10.65;1.83;;;3.40;99.90;;;;;;5060146;28;20044;-58
2021/03/17 11:05:09;;;;;;;7.70;1.63;;;3.20;99.90;;;;;;5057997;28;20056;-56
2021/03/17 11:07:57;;;;;;;4.28;1.38;;;2.90;99.90;;;;;;5062435;28;20124;-57
2021/03/17 11:10:33;;;;;;;6.40;1.73;;;3.10;99.90;;;;;;5057802;28;20767;-52
2021/03/17 11:13:00;;;;;;;8.55;2.00;;;3.00;99.90;;;;;;5059310;28;20055;-52
2021/03/17 11:15:30;;;;;;;9.98;1.73;;;2.80;99.90;;;;;;5062161;28;20068;-52
2021/03/17 11:17:57;;;;;;;11.30;1.90;;;2.60;99.90;;;;;;5061279;28;20052;-54
2021/03/17 11:20:25;;;;;;;8.13;1.42;;;2.50;99.90;;;;;;5057725;28;20032;-57
2021/03/17 11:22:51;;;;;;;6.55;1.55;;;2.40;99.90;;;;;;5061248;28;20040;-52
2021/03/17 11:25:24;;;;;;;11.90;2.35;;;2.20;99.90;;;;;;5055129;28;20043;-51
2021/03/17 11:27:51;;;;;;;11.95;2.13;;;2.20;99.90;;;;;;5058136;28;20033;-55
2021/03/17 11:30:17;;;;;;;12.68;2.10;;;2.20;99.90;;;;;;5062461;28;20089;-52
2021/03/17 11:32:42;;;;;;;7.05;1.52;;;2.20;99.90;;;;;;5060614;28;20370;-52
2021/03/17 11:35:10;;;;;;;7.47;2.13;;;2.20;99.90;;;;;;5056359;28;20078;-62
2021/03/17 11:37:35;;;;;;;8.63;2.90;;;2.10;99.90;;;;;;5063227;28;20051;-56
2021/03/17 11:40:02;;;;;;;8.52;2.22;;;2.20;99.90;;;;;;5058821;28;20328;-56
2021/03/17 11:42:28;;;;;;;12.70;1.98;;;2.30;99.90;;;;;;5058832;28;20621;-53
2021/03/17 11:44:54;;;;;;;11.98;2.13;;;2.30;99.90;;;;;;5060733;28;20083;-50
2021/03/17 11:47:19;;;;;;;12.88;2.40;;;2.50;99.90;;;;;;5058269;28;20420;-55
2021/03/17 11:49:45;;;;;;;9.20;2.35;;;2.30;99.90;;;;;;5044836;28;20131;-54
2021/03/17 11:52:11;;;;;;;8.80;3.17;;;2.20;99.90;;;;;;5060353;28;20044;-51
2021/03/17 11:54:37;;;;;;;8.82;2.42;;;2.20;99.90;;;;;;5061188;28;20051;-54
2021/03/17 11:57:03;;;;;;;10.02;2.30;;;2.00;99.90;;;;;;5059974;23;20049;-51
2021/03/17 11:59:29;;;;;;;8.60;2.60;;;1.90;99.90;;;;;;5061092;28;20037;-52
2021/03/17 12:01:54;;;;;;;7.95;2.35;;;2.00;99.90;;;;;;5059890;28;20397;-51
2021/03/17 12:04:20;;;;;;;10.50;2.42;;;2.10;99.90;;;;;;5060443;28;20412;-54
2021/03/17 12:06:45;;;;;;;15.10;2.78;;;2.30;99.90;;;;;;5057844;28;20036;-53
2021/03/17 12:09:11;;;;;;;8.00;3.00;;;2.30;99.90;;;;;;5063589;28;20647;-51
2021/03/17 12:11:40;;;;;;;6.80;2.50;;;2.20;99.90;;;;;;5064256;28;20040;-52
2021/03/17 12:14:06;;;;;;;9.18;2.53;;;2.10;99.90;;;;;;5065747;28;20033;-53
2021/03/17 12:16:32;;;;;;;9.65;2.60;;;2.00;99.90;;;;;;5065536;28;20047;-51
2021/03/17 12:18:58;;;;;;;9.02;2.22;;;2.10;99.90;;;;;;5066466;28;20036;-56
2021/03/17 12:21:23;;;;;;;7.05;1.88;;;2.30;99.90;;;;;;5065373;28;20186;-52
2021/03/17 12:23:50;;;;;;;5.95;1.90;;;2.20;99.90;;;;;;5065845;28;20037;-55
2021/03/17 12:26:16;;;;;;;7.25;2.05;;;2.30;99.90;;;;;;5062726;28;20798;-52
2021/03/17 12:28:42;;;;;;;6.93;2.00;;;2.20;99.90;;;;;;5062099;28;20040;-50
2021/03/17 12:31:08;;;;;;;7.68;2.60;;;2.30;99.90;;;;;;5065978;28;20439;-53
2021/03/17 12:33:34;;;;;;;7.43;2.47;;;2.40;99.90;;;;;;5064835;28;20072;-51
2021/03/17 12:35:59;;;;;;;12.23;3.58;;;2.50;99.90;;;;;;5066579;28;20048;-50
2021/03/17 12:38:26;;;;;;;8.60;2.80;;;2.50;99.90;;;;;;5065249;28;20044;-52
2021/03/17 12:40:51;;;;;;;6.88;1.98;;;2.60;99.90;;;;;;5065078;28;20032;-55
2021/03/17 12:43:17;;;;;;;8.32;2.60;;;2.60;99.90;;;;;;5065730;28;20040;-51
2021/03/17 12:45:44;;;;;;;6.68;2.35;;;2.60;99.90;;;;;;5064599;28;20039;-52
2021/03/17 12:48:10;;;;;;;6.93;2.20;;;2.50;99.90;;;;;;5067475;28;20931;-54
2021/03/17 12:50:36;;;;;;;8.68;2.45;;;2.70;99.90;;;;;;5048559;28;20056;-57
2021/03/17 12:53:02;;;;;;;9.85;2.53;;;2.60;99.90;;;;;;5065347;28;20059;-59
2021/03/17 12:55:28;;;;;;;9.32;2.03;;;2.60;99.90;;;;;;5066178;28;20464;-58
2021/03/17 12:57:54;;;;;;;5.93;1.20;;;2.70;99.90;;;;;;5065505;28;20040;-54
2021/03/17 13:00:23;;;;;;;9.18;1.80;;;2.70;98.60;;;;;;5066263;28;20067;-51
2021/03/17 13:02:49;;;;;;;8.25;1.45;;;2.80;98.80;;;;;;5066069;28;20562;-55
2021/03/17 13:05:16;;;;;;;9.55;1.90;;;2.70;99.80;;;;;;5066119;28;20037;-57